sensor_id;sensor_type;location;lat;lon;timestamp;pressure;altitude;pressure_sealevel;temperature;humidity
12172;BME280;6149;52.418;13.668;2022-07-23T00:00:02;101312.41;;;16.47;97.15
12172;BME280;6149;52.418;13.668;2022-07-23T00:02:31;101314.31;;;16.45;97.14
12172;BME280;6149;52.418;13.668;2022-07-23T00:04:57;101310.03;;;16.42;96.94
12172;BME280;6149;52.418;13.668;2022-07-23T00:07:24;101309.38;;;16.38;96.66
12172;BME280;6149;52.418;13.668;2022-07-23T00:09:50;101301.47;;;16.37;96.68
12172;BME280;6149;52.418;13.668;2022-07-23T00:12:17;101300.00;;;16.33;97.75
12172;BME280;6149;52.418;13.668;2022-07-23T00:14:44;101290.56;;;16.27;97.60
12172;BME280;6149;52.418;13.668;2022-07-23T00:17:10;101278.28;;;16.25;97.08
12172;BME280;6149;52.418;13.668;2022-07-23T00:19:38;101281.59;;;16.28;96.57
12172;BME280;6149;52.418;13.668;2022-07-23T00:22:05;101281.72;;;16.27;96.74
12172;BME280;6149;52.418;13.668;2022-07-23T00:24:33;101281.81;;;16.25;97.24
12172;BME280;6149;52.418;13.668;2022-07-23T00:26:59;101273.16;;;16.22;97.00
12172;BME280;6149;52.418;13.668;2022-07-23T00:29:26;101278.97;;;16.14;98.23
12172;BME280;6149;52.418;13.668;2022-07-23T00:31:53;101267.94;;;16.06;98.50
12172;BME280;6149;52.418;13.668;2022-07-23T00:34:19;101277.19;;;16.00;99.78
12172;BME280;6149;52.418;13.668;2022-07-23T00:36:47;101289.88;;;15.97;99.71
12172;BME280;6149;52.418;13.668;2022-07-23T00:39:14;101284.00;;;15.92;100.00
12172;BME280;6149;52.418;13.668;2022-07-23T00:41:40;101290.50;;;15.88;100.00
12172;BME280;6149;52.418;13.668;2022-07-23T00:44:18;101284.59;;;16.10;98.58
12172;BME280;6149;52.418;13.668;2022-07-23T00:46:47;101289.88;;;15.97;98.67
12172;BME280;6149;52.418;13.668;2022-07-23T00:49:15;101286.97;;;15.87;99.51
12172;BME280;6149;52.418;13.668;2022-07-23T00:51:42;101285.66;;;15.80;100.00
12172;BME280;6149;52.418;13.668;2022-07-23T00:54:10;101279.66;;;15.77;100.00
12172;BME280;6149;52.418;13.668;2022-07-23T00:56:37;101287.94;;;15.72;100.00
12172;BME280;6149;52.418;13.668;2022-07-23T00:59:05;101282.78;;;15.69;100.00
12172;BME280;6149;52.418;13.668;2022-07-23T01:01:32;101289.19;;;15.66;100.00
12172;BME280;6149;52.418;13.668;2022-07-23T01:03:58;101299.09;;;15.64;100.00
12172;BME280;6149;52.418;13.668;2022-07-23T01:06:25;101293.00;;;15.62;100.00
12172;BME280;6149;52.418;13.668;2022-07-23T01:08:52;101285.22;;;15.59;100.00
12172;BME280;6149;52.418;13.668;2022-07-23T01:11:22;101276.47;;;15.57;100.00
12172;BME280;6149;52.418;13.668;2022-07-23T01:13:49;101278.41;;;15.54;100.00
12172;BME280;6149;52.418;13.668;2022-07-23T01:16:16;101286.59;;;15.51;100.00
12172;BME280;6149;52.418;13.668;2022-07-23T01:18:42;101283.09;;;15.50;100.00
12172;BME280;6149;52.418;13.668;2022-07-23T01:21:11;101285.75;;;15.50;100.00
12172;BME280;6149;52.418;13.668;2022-07-23T01:23:40;101276.72;;;15.53;100.00
12172;BME280;6149;52.418;13.668;2022-07-23T01:26:06;101282.03;;;15.53;100.00
12172;BME280;6149;52.418;13.668;2022-07-23T01:28:33;101284.59;;;15.54;100.00
12172;BME280;6149;52.418;13.668;2022-07-23T01:31:00;101286.25;;;15.57;100.00
12172;BME280;6149;52.418;13.668;2022-07-23T01:33:26;101274.66;;;15.58;100.00
12172;BME280;6149;52.418;13.668;2022-07-23T01:35:53;101268.38;;;15.59;100.00
12172;BME280;6149;52.418;13.668;2022-07-23T01:38:19;101262.91;;;15.60;100.00
12172;BME280;6149;52.418;13.668;2022-07-23T01:40:47;101266.56;;;15.59;100.00
12172;BME280;6149;52.418;13.668;2022-07-23T01:43:14;101259.09;;;15.64;100.00
12172;BME280;6149;52.418;13.668;2022-07-23T01:45:40;101254.03;;;15.74;100.00
12172;BME280;6149;52.418;13.668;2022-07-23T01:48:09;101248.44;;;15.64;100.00
12172;BME280;6149;52.418;13.668;2022-07-23T01:50:35;101244.47;;;15.57;100.00
12172;BME280;6149;52.418;13.668;2022-07-23T01:53:02;101236.72;;;15.53;100.00
12172;BME280;6149;52.418;13.668;2022-07-23T01:55:28;101246.53;;;15.52;100.00
12172;BME280;6149;52.418;13.668;2022-07-23T01:57:56;101237.69;;;15.52;100.00
12172;BME280;6149;52.418;13.668;2022-07-23T02:00:23;101232.25;;;15.53;100.00
12172;BME280;6149;52.418;13.668;2022-07-23T02:02:49;101230.34;;;15.55;100.00
12172;BME280;6149;52.418;13.668;2022-07-23T02:05:16;101221.44;;;15.56;100.00
12172;BME280;6149;52.418;13.668;2022-07-23T02:07:42;101233.81;;;15.57;100.00
12172;BME280;6149;52.418;13.668;2022-07-23T02:10:09;101239.13;;;15.57;100.00
12172;BME280;6149;52.418;13.668;2022-07-23T02:12:36;101235.63;;;15.57;100.00
12172;BME280;6149;52.418;13.668;2022-07-23T02:15:05;101237.31;;;15.58;100.00
12172;BME280;6149;52.418;13.668;2022-07-23T02:17:32;101230.28;;;15.57;100.00
12172;BME280;6149;52.418;13.668;2022-07-23T02:19:59;101242.75;;;15.56;100.00
12172;BME280;6149;52.418;13.668;2022-07-23T02:22:25;101253.31;;;15.58;100.00
12172;BME280;6149;52.418;13.668;2022-07-23T02:24:52;101251.50;;;15.58;100.00
12172;BME280;6149;52.418;13.668;2022-07-23T02:27:19;101251.28;;;15.61;100.00
12172;BME280;6149;52.418;13.668;2022-07-23T02:29:46;101239.66;;;15.62;100.00
12172;BME280;6149;52.418;13.668;2022-07-23T02:32:14;101243.94;;;15.65;100.00
12172;BME280;6149;52.418;13.668;2022-07-23T02:34:41;101249.19;;;15.66;100.00
12172;BME280;6149;52.418;13.668;2022-07-23T02:37:07;101243.84;;;15.66;100.00
12172;BME280;6149;52.418;13.668;2022-07-23T02:39:34;101242.22;;;15.64;100.00
12172;BME280;6149;52.418;13.668;2022-07-23T02:42:01;101241.38;;;15.63;100.00
12172;BME280;6149;52.418;13.668;2022-07-23T02:44:27;101241.38;;;15.63;100.00
12172;BME280;6149;52.418;13.668;2022-07-23T02:46:54;101246.63;;;15.65;100.00
12172;BME280;6149;52.418;13.668;2022-07-23T02:49:23;101243.84;;;15.66;100.00
12172;BME280;6149;52.418;13.668;2022-07-23T02:51:49;101236.72;;;15.67;100.00
12172;BME280;6149;52.418;13.668;2022-07-23T02:54:17;101235.84;;;15.66;100.00
12172;BME280;6149;52.418;13.668;2022-07-23T02:56:43;101248.22;;;15.67;100.00
12172;BME280;6149;52.418;13.668;2022-07-23T02:59:10;101245.66;;;15.66;100.00
12172;BME280;6149;52.418;13.668;2022-07-23T03:01:37;101250.91;;;15.67;100.00
12172;BME280;6149;52.418;13.668;2022-07-23T03:04:03;101256.22;;;15.67;100.00
12172;BME280;6149;52.418;13.668;2022-07-23T03:06:31;101254.31;;;15.69;100.00
12172;BME280;6149;52.418;13.668;2022-07-23T03:08:58;101245.28;;;15.72;100.00
12172;BME280;6149;52.418;13.668;2022-07-23T03:11:25;101220.31;;;15.73;100.00
12172;BME280;6149;52.418;13.668;2022-07-23T03:13:51;101220.22;;;15.75;100.00
12172;BME280;6149;52.418;13.668;2022-07-23T03:16:18;101217.56;;;15.75;100.00
12172;BME280;6149;52.418;13.668;2022-07-23T03:18:45;101225.56;;;15.75;100.00
12172;BME280;6149;52.418;13.668;2022-07-23T03:21:11;101224.69;;;15.74;100.00
12172;BME280;6149;52.418;13.668;2022-07-23T03:23:39;101217.66;;;15.73;100.00
12172;BME280;6149;52.418;13.668;2022-07-23T03:26:06;101225.66;;;15.73;100.00
12172;BME280;6149;52.418;13.668;2022-07-23T03:28:32;101220.31;;;15.73;100.00
12172;BME280;6149;52.418;13.668;2022-07-23T03:30:59;101216.81;;;15.73;100.00
12172;BME280;6149;52.418;13.668;2022-07-23T03:33:25;101227.28;;;15.76;100.00
12172;BME280;6149;52.418;13.668;2022-07-23T03:35:52;101221.75;;;15.79;100.00
12172;BME280;6149;52.418;13.668;2022-07-23T03:38:19;101216.22;;;15.82;100.00
12172;BME280;6149;52.418;13.668;2022-07-23T03:40:47;101216.78;;;15.87;100.00
12172;BME280;6149;52.418;13.668;2022-07-23T03:43:13;101226.19;;;15.92;100.00
12172;BME280;6149;52.418;13.668;2022-07-23T03:45:40;101232.91;;;15.98;100.00
12172;BME280;6149;52.418;13.668;2022-07-23T03:48:07;101237.84;;;16.04;100.00
12172;BME280;6149;52.418;13.668;2022-07-23T03:50:34;101234.00;;;16.08;100.00
12172;BME280;6149;52.418;13.668;2022-07-23T03:53:02;101228.38;;;16.13;100.00
12172;BME280;6149;52.418;13.668;2022-07-23T03:55:29;101233.31;;;16.19;100.00
12172;BME280;6149;52.418;13.668;2022-07-23T03:57:57;101235.56;;;16.25;100.00
12172;BME280;6149;52.418;13.668;2022-07-23T04:00:25;101245.84;;;16.31;100.00
12172;BME280;6149;52.418;13.668;2022-07-23T04:02:53;101244.66;;;16.35;100.00
12172;BME280;6149;52.418;13.668;2022-07-23T04:05:20;101265.81;;;16.38;100.00
12172;BME280;6149;52.418;13.668;2022-07-23T04:07:46;101263.59;;;16.45;100.00
12172;BME280;6149;52.418;13.668;2022-07-23T04:10:13;101255.28;;;16.49;100.00
12172;BME280;6149;52.418;13.668;2022-07-23T04:12:39;101253.16;;;16.54;100.00
12172;BME280;6149;52.418;13.668;2022-07-23T04:15:08;101271.22;;;16.63;100.00
12172;BME280;6149;52.418;13.668;2022-07-23T04:17:35;101263.06;;;16.66;100.00
12172;BME280;6149;52.418;13.668;2022-07-23T04:20:02;101259.22;;;16.70;100.00
12172;BME280;6149;52.418;13.668;2022-07-23T04:22:29;101254.81;;;16.82;100.00
12172;BME280;6149;52.418;13.668;2022-07-23T04:24:56;101259.09;;;16.85;99.43
12172;BME280;6149;52.418;13.668;2022-07-23T04:27:23;101265.31;;;16.85;99.38
12172;BME280;6149;52.418;13.668;2022-07-23T04:29:50;101267.00;;;16.86;99.44
12172;BME280;6149;52.418;13.668;2022-07-23T04:32:18;101270.22;;;16.91;99.61
12172;BME280;6149;52.418;13.668;2022-07-23T04:34:46;101268.09;;;16.96;99.70
12172;BME280;6149;52.418;13.668;2022-07-23T04:37:13;101268.09;;;16.96;99.03
12172;BME280;6149;52.418;13.668;2022-07-23T04:39:39;101269.59;;;17.00;98.74
12172;BME280;6149;52.418;13.668;2022-07-23T04:42:06;101266.19;;;16.98;97.99
12172;BME280;6149;52.418;13.668;2022-07-23T04:44:33;101271.53;;;16.98;98.79
12172;BME280;6149;52.418;13.668;2022-07-23T04:46:59;101290.13;;;17.00;98.71
12172;BME280;6149;52.418;13.668;2022-07-23T04:49:27;101320.56;;;16.97;98.45
12172;BME280;6149;52.418;13.668;2022-07-23T04:51:54;101308.94;;;16.98;97.74
12172;BME280;6149;52.418;13.668;2022-07-23T04:54:20;101269.06;;;16.95;98.28
12172;BME280;6149;52.418;13.668;2022-07-23T04:56:47;101250.91;;;17.00;97.87
12172;BME280;6149;52.418;13.668;2022-07-23T04:59:13;101289.38;;;16.98;98.38
12172;BME280;6149;52.418;13.668;2022-07-23T05:01:40;101309.34;;;16.92;98.93
12172;BME280;6149;52.418;13.668;2022-07-23T05:04:06;101328.47;;;16.86;100.00
12172;BME280;6149;52.418;13.668;2022-07-23T05:06:34;101332.50;;;16.79;100.00
12172;BME280;6149;52.418;13.668;2022-07-23T05:09:01;101299.69;;;16.77;100.00
12172;BME280;6149;52.418;13.668;2022-07-23T05:11:28;101272.78;;;16.67;100.00
12172;BME280;6149;52.418;13.668;2022-07-23T05:13:54;101274.59;;;16.67;100.00
12172;BME280;6149;52.418;13.668;2022-07-23T05:16:21;101266.97;;;16.61;100.00
12172;BME280;6149;52.418;13.668;2022-07-23T05:18:47;101260.41;;;16.52;100.00
12172;BME280;6149;52.418;13.668;2022-07-23T05:21:14;101278.66;;;16.46;100.00
12172;BME280;6149;52.418;13.668;2022-07-23T05:23:42;101276.09;;;16.44;100.00
12172;BME280;6149;52.418;13.668;2022-07-23T05:26:09;101277.91;;;16.44;100.00
12172;BME280;6149;52.418;13.668;2022-07-23T05:28:35;101280.97;;;16.37;100.00
12172;BME280;6149;52.418;13.668;2022-07-23T05:31:02;101294.84;;;16.30;100.00
12172;BME280;6149;52.418;13.668;2022-07-23T05:33:29;101293.34;;;16.26;100.00
12172;BME280;6149;52.418;13.668;2022-07-23T05:36:00;101298.69;;;16.26;100.00
12172;BME280;6149;52.418;13.668;2022-07-23T05:38:27;101298.88;;;16.23;100.00
12172;BME280;6149;52.418;13.668;2022-07-23T05:40:56;101290.31;;;16.18;100.00
12172;BME280;6149;52.418;13.668;2022-07-23T05:43:22;101275.34;;;16.15;100.00
12172;BME280;6149;52.418;13.668;2022-07-23T05:45:49;101281.84;;;16.11;100.00
12172;BME280;6149;52.418;13.668;2022-07-23T05:48:16;101294.53;;;16.08;100.00
12172;BME280;6149;52.418;13.668;2022-07-23T05:50:42;101310.63;;;16.06;100.00
12172;BME280;6149;52.418;13.668;2022-07-23T05:53:09;101324.06;;;16.04;100.00
12172;BME280;6149;52.418;13.668;2022-07-23T05:55:36;101322.34;;;16.03;100.00
12172;BME280;6149;52.418;13.668;2022-07-23T05:58:03;101330.75;;;15.97;100.00
12172;BME280;6149;52.418;13.668;2022-07-23T06:00:31;101321.25;;;15.93;100.00
12172;BME280;6149;52.418;13.668;2022-07-23T06:02:57;101323.06;;;15.93;100.00
12172;BME280;6149;52.418;13.668;2022-07-23T06:05:24;101303.44;;;15.94;100.00
12172;BME280;6149;52.418;13.668;2022-07-23T06:07:51;101291.06;;;15.93;100.00
12172;BME280;6149;52.418;13.668;2022-07-23T06:10:18;101292.69;;;15.95;100.00
12172;BME280;6149;52.418;13.668;2022-07-23T06:12:45;101296.94;;;15.98;100.00
12172;BME280;6149;52.418;13.668;2022-07-23T06:15:12;101299.59;;;15.98;100.00
12172;BME280;6149;52.418;13.668;2022-07-23T06:17:39;101296.81;;;15.99;100.00
12172;BME280;6149;52.418;13.668;2022-07-23T06:20:07;101295.22;;;15.97;100.00
12172;BME280;6149;52.418;13.668;2022-07-23T06:22:35;101301.31;;;15.99;100.00
12172;BME280;6149;52.418;13.668;2022-07-23T06:25:02;101271.97;;;15.99;100.00
12172;BME280;6149;52.418;13.668;2022-07-23T06:27:29;101280.81;;;15.99;100.00
12172;BME280;6149;52.418;13.668;2022-07-23T06:29:56;101296.94;;;15.98;100.00
12172;BME280;6149;52.418;13.668;2022-07-23T06:32:24;101304.06;;;15.97;100.00
12172;BME280;6149;52.418;13.668;2022-07-23T06:34:51;101305.88;;;15.97;100.00
12172;BME280;6149;52.418;13.668;2022-07-23T06:37:18;101314.97;;;15.94;100.00
12172;BME280;6149;52.418;13.668;2022-07-23T06:39:44;101322.03;;;15.95;100.00
12172;BME280;6149;52.418;13.668;2022-07-23T06:42:11;101304.41;;;15.93;100.00
12172;BME280;6149;52.418;13.668;2022-07-23T06:44:37;101305.25;;;15.93;100.00
12172;BME280;6149;52.418;13.668;2022-07-23T06:47:04;101294.38;;;15.96;100.00
12172;BME280;6149;52.418;13.668;2022-07-23T06:49:32;101308.03;;;15.92;100.00
12172;BME280;6149;52.418;13.668;2022-07-23T06:51:59;101285.06;;;15.89;100.00
12172;BME280;6149;52.418;13.668;2022-07-23T06:54:25;101282.41;;;15.89;100.00
12172;BME280;6149;52.418;13.668;2022-07-23T06:56:52;101284.31;;;15.87;100.00
12172;BME280;6149;52.418;13.668;2022-07-23T06:59:18;101296.69;;;15.88;100.00
12172;BME280;6149;52.418;13.668;2022-07-23T07:01:45;101302.88;;;15.89;100.00
12172;BME280;6149;52.418;13.668;2022-07-23T07:04:11;101321.34;;;15.92;100.00
12172;BME280;6149;52.418;13.668;2022-07-23T07:06:39;101328.41;;;15.93;100.00
12172;BME280;6149;52.418;13.668;2022-07-23T07:09:06;101327.34;;;15.95;100.00
12172;BME280;6149;52.418;13.668;2022-07-23T07:11:32;101317.41;;;15.97;100.00
12172;BME280;6149;52.418;13.668;2022-07-23T07:14:00;101318.94;;;16.01;100.00
12172;BME280;6149;52.418;13.668;2022-07-23T07:16:26;101318.44;;;16.09;100.00
12172;BME280;6149;52.418;13.668;2022-07-23T07:18:53;101302.59;;;16.20;100.00
12172;BME280;6149;52.418;13.668;2022-07-23T07:21:19;101293.19;;;16.15;100.00
12172;BME280;6149;52.418;13.668;2022-07-23T07:23:47;101302.63;;;16.06;100.00
12172;BME280;6149;52.418;13.668;2022-07-23T07:26:14;101284.81;;;16.07;100.00
12172;BME280;6149;52.418;13.668;2022-07-23T07:28:40;101268.34;;;16.00;100.00
12172;BME280;6149;52.418;13.668;2022-07-23T07:31:07;101300.34;;;16.00;100.00
12172;BME280;6149;52.418;13.668;2022-07-23T07:33:33;101311.59;;;16.05;100.00
12172;BME280;6149;52.418;13.668;2022-07-23T07:36:00;101308.63;;;16.10;100.00
12172;BME280;6149;52.418;13.668;2022-07-23T07:38:27;101310.34;;;16.11;100.00
12172;BME280;6149;52.418;13.668;2022-07-23T07:40:55;101297.75;;;16.13;100.00
12172;BME280;6149;52.418;13.668;2022-07-23T07:43:22;101299.28;;;16.17;100.00
12172;BME280;6149;52.418;13.668;2022-07-23T07:45:48;101299.06;;;16.20;100.00
12172;BME280;6149;52.418;13.668;2022-07-23T07:48:15;101302.41;;;16.23;100.00
12172;BME280;6149;52.418;13.668;2022-07-23T07:50:41;101301.16;;;16.29;100.00
12172;BME280;6149;52.418;13.668;2022-07-23T07:53:08;101299.34;;;16.29;100.00
12172;BME280;6149;52.418;13.668;2022-07-23T07:55:35;101283.97;;;16.33;100.00
12172;BME280;6149;52.418;13.668;2022-07-23T07:58:03;101281.06;;;16.36;100.00
12172;BME280;6149;52.418;13.668;2022-07-23T08:00:29;101279.16;;;16.38;100.00
12172;BME280;6149;52.418;13.668;2022-07-23T08:02:56;101278.84;;;16.43;100.00
12172;BME280;6149;52.418;13.668;2022-07-23T08:05:24;101282.06;;;16.48;100.00
12172;BME280;6149;52.418;13.668;2022-07-23T08:07:51;101268.13;;;16.57;100.00
12172;BME280;6149;52.418;13.668;2022-07-23T08:10:19;101254.56;;;16.60;100.00
12172;BME280;6149;52.418;13.668;2022-07-23T08:12:48;101255.44;;;16.73;100.00
12172;BME280;6149;52.418;13.668;2022-07-23T08:15:18;101256.53;;;16.83;100.00
12172;BME280;6149;52.418;13.668;2022-07-23T08:17:46;101242.03;;;17.00;100.00
12172;BME280;6149;52.418;13.668;2022-07-23T08:20:15;101245.13;;;17.07;100.00
12172;BME280;6149;52.418;13.668;2022-07-23T08:22:48;101239.66;;;17.08;100.00
12172;BME280;6149;52.418;13.668;2022-07-23T08:25:20;101260.69;;;17.13;100.00
12172;BME280;6149;52.418;13.668;2022-07-23T08:27:48;101274.94;;;17.26;100.00
12172;BME280;6149;52.418;13.668;2022-07-23T08:30:17;101274.94;;;17.38;100.00
12172;BME280;6149;52.418;13.668;2022-07-23T08:32:52;101298.00;;;17.52;100.00
12172;BME280;6149;52.418;13.668;2022-07-23T08:35:25;101293.88;;;17.85;100.00
12172;BME280;6149;52.418;13.668;2022-07-23T08:37:52;101277.44;;;18.15;100.00
12172;BME280;6149;52.418;13.668;2022-07-23T08:40:19;101278.03;;;18.42;100.00
12172;BME280;6149;52.418;13.668;2022-07-23T08:42:48;101271.47;;;18.70;100.00
12172;BME280;6149;52.418;13.668;2022-07-23T08:45:18;101277.81;;;18.69;100.00
12172;BME280;6149;52.418;13.668;2022-07-23T08:47:48;101276.50;;;18.51;99.39
12172;BME280;6149;52.418;13.668;2022-07-23T08:50:16;101282.72;;;18.51;99.77
12172;BME280;6149;52.418;13.668;2022-07-23T08:52:42;101277.72;;;18.58;98.59
12172;BME280;6149;52.418;13.668;2022-07-23T08:55:09;101281.09;;;18.73;98.08
12172;BME280;6149;52.418;13.668;2022-07-23T08:57:35;101289.34;;;18.93;98.93
12172;BME280;6149;52.418;13.668;2022-07-23T09:00:04;101299.13;;;19.17;96.47
12172;BME280;6149;52.418;13.668;2022-07-23T09:02:39;101300.84;;;19.29;96.79
12172;BME280;6149;52.418;13.668;2022-07-23T09:05:07;101300.63;;;19.54;97.63
12172;BME280;6149;52.418;13.668;2022-07-23T09:07:34;101305.28;;;19.63;94.37
12172;BME280;6149;52.418;13.668;2022-07-23T09:10:10;101306.47;;;19.70;93.14
12172;BME280;6149;52.418;13.668;2022-07-23T09:12:37;101324.03;;;19.86;91.18
12172;BME280;6149;52.418;13.668;2022-07-23T09:15:06;101328.31;;;19.99;89.04
12172;BME280;6149;52.418;13.668;2022-07-23T09:17:39;101322.00;;;20.21;88.94
12172;BME280;6149;52.418;13.668;2022-07-23T09:20:10;101307.34;;;20.36;85.26
12172;BME280;6149;52.418;13.668;2022-07-23T09:22:38;101298.69;;;20.65;86.95
12172;BME280;6149;52.418;13.668;2022-07-23T09:25:08;101297.97;;;20.84;87.22
12172;BME280;6149;52.418;13.668;2022-07-23T09:27:54;101297.31;;;20.91;88.80
12172;BME280;6149;52.418;13.668;2022-07-23T09:30:23;101293.06;;;20.89;83.95
12172;BME280;6149;52.418;13.668;2022-07-23T09:33:07;101294.25;;;20.75;84.70
12172;BME280;6149;52.418;13.668;2022-07-23T09:35:47;101300.78;;;20.61;86.54
12172;BME280;6149;52.418;13.668;2022-07-23T09:38:15;101296.03;;;20.54;82.88
12172;BME280;6149;52.418;13.668;2022-07-23T09:40:43;101300.22;;;20.47;84.88
12172;BME280;6149;52.418;13.668;2022-07-23T09:43:10;101299.47;;;20.56;83.49
12172;BME280;6149;52.418;13.668;2022-07-23T09:45:37;101308.72;;;20.63;84.38
12172;BME280;6149;52.418;13.668;2022-07-23T09:48:12;101315.94;;;20.83;85.05
12172;BME280;6149;52.418;13.668;2022-07-23T09:50:42;101320.63;;;21.02;81.22
12172;BME280;6149;52.418;13.668;2022-07-23T09:53:10;101315.31;;;21.32;83.20
12172;BME280;6149;52.418;13.668;2022-07-23T09:55:37;101308.00;;;21.44;80.21
12172;BME280;6149;52.418;13.668;2022-07-23T09:58:05;101322.03;;;21.78;79.97
12172;BME280;6149;52.418;13.668;2022-07-23T10:00:34;101325.00;;;22.15;77.15
12172;BME280;6149;52.418;13.668;2022-07-23T10:03:05;101329.69;;;22.23;73.16
12172;BME280;6149;52.418;13.668;2022-07-23T10:05:35;101333.09;;;22.15;74.97
12172;BME280;6149;52.418;13.668;2022-07-23T10:08:02;101326.53;;;22.08;75.76
12172;BME280;6149;52.418;13.668;2022-07-23T10:10:30;101344.03;;;21.93;74.83
12172;BME280;6149;52.418;13.668;2022-07-23T10:12:57;101334.97;;;21.84;75.80
12172;BME280;6149;52.418;13.668;2022-07-23T10:15:44;101335.19;;;21.72;75.83
12172;BME280;6149;52.418;13.668;2022-07-23T10:18:11;101334.59;;;21.68;77.65
12172;BME280;6149;52.418;13.668;2022-07-23T10:20:40;101339.78;;;21.50;74.00
12172;BME280;6149;52.418;13.668;2022-07-23T10:23:14;101337.88;;;21.41;77.68
12172;BME280;6149;52.418;13.668;2022-07-23T10:25:49;101342.53;;;21.39;78.02
12172;BME280;6149;52.418;13.668;2022-07-23T10:28:42;101348.91;;;21.38;75.62
12172;BME280;6149;52.418;13.668;2022-07-23T10:31:21;101342.88;;;21.25;79.41
12172;BME280;6149;52.418;13.668;2022-07-23T10:33:57;101343.78;;;21.35;77.54
12172;BME280;6149;52.418;13.668;2022-07-23T10:36:37;101355.53;;;21.34;77.46
12172;BME280;6149;52.418;13.668;2022-07-23T10:39:13;101348.69;;;21.30;77.01
12172;BME280;6149;52.418;13.668;2022-07-23T10:42:07;101349.03;;;21.37;76.04
12172;BME280;6149;52.418;13.668;2022-07-23T10:44:38;101342.94;;;21.34;75.83
12172;BME280;6149;52.418;13.668;2022-07-23T10:47:07;101346.88;;;21.30;74.42
12172;BME280;6149;52.418;13.668;2022-07-23T10:49:40;101341.59;;;21.50;76.06
12172;BME280;6149;52.418;13.668;2022-07-23T10:52:19;101335.13;;;21.62;75.28
12172;BME280;6149;52.418;13.668;2022-07-23T10:54:50;101340.25;;;21.65;72.88
12172;BME280;6149;52.418;13.668;2022-07-23T10:57:18;101347.25;;;21.77;73.93
12172;BME280;6149;52.418;13.668;2022-07-23T11:00:09;101344.47;;;21.88;72.37
12172;BME280;6149;52.418;13.668;2022-07-23T11:02:44;101350.84;;;21.87;69.67
12172;BME280;6149;52.418;13.668;2022-07-23T11:05:14;101346.56;;;21.85;69.62
12172;BME280;6149;52.418;13.668;2022-07-23T11:08:12;101342.19;;;21.93;69.71
12172;BME280;6149;52.418;13.668;2022-07-23T11:10:48;101336.81;;;21.93;69.24
12172;BME280;6149;52.418;13.668;2022-07-23T11:13:32;101336.09;;;21.91;68.87
12172;BME280;6149;52.418;13.668;2022-07-23T11:16:25;101343.75;;;21.96;70.20
12172;BME280;6149;52.418;13.668;2022-07-23T11:19:06;101339.94;;;21.89;70.46
12172;BME280;6149;52.418;13.668;2022-07-23T11:21:41;101335.09;;;21.83;67.31
12172;BME280;6149;52.418;13.668;2022-07-23T11:24:15;101328.19;;;21.90;69.16
12172;BME280;6149;52.418;13.668;2022-07-23T11:26:55;101318.81;;;21.94;66.98
12172;BME280;6149;52.418;13.668;2022-07-23T11:32:34;101320.72;;;22.03;68.29
12172;BME280;6149;52.418;13.668;2022-07-23T11:35:25;101324.41;;;22.02;66.46
12172;BME280;6149;52.418;13.668;2022-07-23T11:37:54;101323.78;;;21.98;66.73
12172;BME280;6149;52.418;13.668;2022-07-23T11:40:31;101324.63;;;21.99;66.84
12172;BME280;6149;52.418;13.668;2022-07-23T11:42:59;101324.63;;;21.99;66.98
12172;BME280;6149;52.418;13.668;2022-07-23T11:45:32;101325.41;;;22.11;66.48
12172;BME280;6149;52.418;13.668;2022-07-23T11:48:00;101333.81;;;22.27;67.95
12172;BME280;6149;52.418;13.668;2022-07-23T11:50:27;101322.91;;;22.38;64.42
12172;BME280;6149;52.418;13.668;2022-07-23T11:52:54;101325.59;;;22.38;64.61
12172;BME280;6149;52.418;13.668;2022-07-23T11:55:21;101318.53;;;22.56;64.99
12172;BME280;6149;52.418;13.668;2022-07-23T11:57:51;101323.34;;;22.53;65.50
12172;BME280;6149;52.418;13.668;2022-07-23T12:00:20;101316.41;;;22.60;63.25
12172;BME280;6149;52.418;13.668;2022-07-23T12:02:50;101328.47;;;22.56;63.26
12172;BME280;6149;52.418;13.668;2022-07-23T12:05:19;101323.91;;;22.56;64.81
12172;BME280;6149;52.418;13.668;2022-07-23T12:07:47;101323.50;;;22.61;65.27
12172;BME280;6149;52.418;13.668;2022-07-23T12:10:17;101322.19;;;22.65;64.19
12172;BME280;6149;52.418;13.668;2022-07-23T12:12:46;101318.09;;;22.71;65.60
12172;BME280;6149;52.418;13.668;2022-07-23T12:15:17;101327.50;;;22.86;64.38
12172;BME280;6149;52.418;13.668;2022-07-23T12:17:47;101317.69;;;22.94;63.67
12172;BME280;6149;52.418;13.668;2022-07-23T12:20:16;101323.38;;;22.91;63.49
12172;BME280;6149;52.418;13.668;2022-07-23T12:22:45;101321.38;;;22.93;61.27
12172;BME280;6149;52.418;13.668;2022-07-23T12:25:14;101327.34;;;22.87;61.02
12172;BME280;6149;52.418;13.668;2022-07-23T12:27:43;101325.06;;;22.83;62.50
12172;BME280;6149;52.418;13.668;2022-07-23T12:30:23;101326.78;;;22.84;62.76
12172;BME280;6149;52.418;13.668;2022-07-23T12:32:52;101317.97;;;22.91;63.42
12172;BME280;6149;52.418;13.668;2022-07-23T12:35:21;101308.41;;;23.07;61.16
12172;BME280;6149;52.418;13.668;2022-07-23T12:37:50;101314.09;;;23.13;61.72
12172;BME280;6149;52.418;13.668;2022-07-23T12:40:28;101314.50;;;23.18;62.27
12172;BME280;6149;52.418;13.668;2022-07-23T12:42:59;101315.66;;;23.16;61.68
12172;BME280;6149;52.418;13.668;2022-07-23T12:45:42;101311.38;;;23.23;61.19
12172;BME280;6149;52.418;13.668;2022-07-23T12:48:17;101310.22;;;23.35;61.92
12172;BME280;6149;52.418;13.668;2022-07-23T12:50:50;101310.59;;;23.40;60.49
12172;BME280;6149;52.418;13.668;2022-07-23T12:53:20;101313.84;;;23.44;60.67
12172;BME280;6149;52.418;13.668;2022-07-23T12:55:48;101318.53;;;23.51;62.53